Time;durP1;ratioP1;P1;durP2;ratioP2;P2;SDS_P1;SDS_P2;PMS_P1;PMS_P2;Temp;Humidity;BMP_temperature;BMP_pressure;BME280_temperature;BME280_humidity;BME280_pressure;Samples;Min_cycle;Max_cycle;Signal;HPM_P1;HPM_P2
2023/04/13 00:02:02;;;;;;;4.07;2.17;;;6.10;99.90;;;;;;4971087;28;20795;-72
2023/04/13 00:04:30;;;;;;;3.63;2.70;;;6.10;99.90;;;;;;4970598;28;20065;-72
2023/04/13 00:06:57;;;;;;;3.90;2.40;;;6.20;99.90;;;;;;4968069;28;20042;-72
2023/04/13 00:09:24;;;;;;;3.70;2.22;;;6.20;99.90;;;;;;4977361;28;20068;-72
2023/04/13 00:11:50;;;;;;;6.65;2.60;;;6.20;99.90;;;;;;4973837;28;20038;-72
2023/04/13 00:14:17;;;;;;;3.85;2.15;;;6.30;99.90;;;;;;4987067;28;20046;-72
2023/04/13 00:16:46;;;;;;;4.68;1.98;;;6.30;99.90;;;;;;4975035;28;20035;-73
2023/04/13 00:19:12;;;;;;;4.18;1.90;;;6.30;99.90;;;;;;4967218;28;20129;-72
2023/04/13 00:21:40;;;;;;;4.30;2.00;;;6.40;99.90;;;;;;4969599;28;20039;-72
2023/04/13 00:24:07;;;;;;;5.22;2.13;;;6.40;99.90;;;;;;4972872;28;20050;-72
2023/04/13 00:26:32;;;;;;;3.55;1.85;;;6.50;99.90;;;;;;4957761;28;20044;-72
2023/04/13 00:28:58;;;;;;;5.63;2.00;;;6.60;99.90;;;;;;4985598;28;20547;-72
2023/04/13 00:31:24;;;;;;;3.33;1.80;;;6.60;99.90;;;;;;4969192;28;20046;-72
2023/04/13 00:33:50;;;;;;;3.25;1.90;;;6.70;99.90;;;;;;4967892;28;20068;-71
2023/04/13 00:36:16;;;;;;;4.25;2.33;;;6.70;99.90;;;;;;4989863;28;20050;-71
2023/04/13 00:38:43;;;;;;;4.70;2.30;;;6.70;99.90;;;;;;4964395;28;20172;-70
2023/04/13 00:41:11;;;;;;;2.80;1.80;;;6.70;99.90;;;;;;4967742;28;20482;-70
2023/04/13 00:43:38;;;;;;;3.50;2.17;;;6.70;99.90;;;;;;4969017;28;20046;-71
2023/04/13 00:46:04;;;;;;;2.90;2.22;;;6.60;99.90;;;;;;4967265;28;20518;-71
2023/04/13 00:48:30;;;;;;;4.13;1.77;;;6.60;99.90;;;;;;4986047;28;20121;-71
2023/04/13 00:50:56;;;;;;;5.20;1.58;;;6.60;99.90;;;;;;4963466;28;20042;-71
2023/04/13 00:53:22;;;;;;;2.85;1.48;;;6.50;99.90;;;;;;4970486;28;20053;-71
2023/04/13 00:55:48;;;;;;;4.10;1.40;;;6.40;99.90;;;;;;4962146;28;20505;-71
2023/04/13 00:58:14;;;;;;;4.57;1.55;;;6.40;99.90;;;;;;4957394;28;20040;-72
2023/04/13 01:00:41;;;;;;;5.53;2.10;;;6.30;99.90;;;;;;4962965;28;20046;-71
2023/04/13 01:03:08;;;;;;;3.67;1.60;;;6.30;99.90;;;;;;4969022;28;20042;-72
2023/04/13 01:05:49;;;;;;;4.93;1.55;;;6.20;99.90;;;;;;4969403;28;20136;-72
2023/04/13 01:08:28;;;;;;;3.45;1.50;;;6.20;99.90;;;;;;4961082;28;20471;-73
2023/04/13 01:11:19;;;;;;;4.60;1.50;;;6.20;99.90;;;;;;4968770;28;20046;-73
2023/04/13 01:14:05;;;;;;;5.53;1.40;;;6.10;99.90;;;;;;4966690;28;20054;-73
2023/04/13 01:16:38;;;;;;;4.15;1.80;;;6.10;99.90;;;;;;4967603;28;21164;-73
2023/04/13 01:19:08;;;;;;;4.20;1.38;;;6.10;99.90;;;;;;4961450;28;20050;-73
2023/04/13 01:21:36;;;;;;;4.28;1.77;;;6.10;99.90;;;;;;4970870;28;20034;-72
2023/04/13 01:24:39;;;;;;;4.78;1.75;;;6.00;99.90;;;;;;4980912;28;20088;-73
2023/04/13 01:27:19;;;;;;;3.30;1.95;;;6.00;99.90;;;;;;4964263;28;20039;-73
2023/04/13 01:29:45;;;;;;;4.78;1.27;;;6.10;99.90;;;;;;4955724;28;20041;-73
2023/04/13 01:32:14;;;;;;;3.08;1.70;;;6.10;99.90;;;;;;4983115;28;20496;-73
2023/04/13 01:34:40;;;;;;;4.20;1.20;;;6.00;99.90;;;;;;4959979;28;20109;-72
2023/04/13 01:37:07;;;;;;;6.07;2.17;;;6.00;99.90;;;;;;4962896;28;20038;-73
2023/04/13 01:39:32;;;;;;;4.05;1.63;;;6.10;99.90;;;;;;4967066;28;20077;-73
2023/04/13 01:41:59;;;;;;;3.80;1.63;;;6.10;99.90;;;;;;4968485;28;20030;-73
2023/04/13 01:44:31;;;;;;;6.68;2.22;;;6.10;99.90;;;;;;4945291;28;20038;-73
2023/04/13 01:47:14;;;;;;;5.32;1.85;;;6.10;99.90;;;;;;4968423;28;20046;-73
2023/04/13 01:49:46;;;;;;;5.50;1.67;;;6.00;99.90;;;;;;4967819;28;20077;-72
2023/04/13 01:52:14;;;;;;;3.90;1.30;;;6.10;99.90;;;;;;4953630;28;20046;-73
2023/04/13 01:54:42;;;;;;;6.03;1.20;;;6.10;99.90;;;;;;4961449;28;20088;-73
2023/04/13 01:57:09;;;;;;;4.10;1.45;;;6.10;99.90;;;;;;4965177;28;20053;-73
2023/04/13 01:59:35;;;;;;;3.20;0.73;;;6.10;99.90;;;;;;4966939;28;20077;-72
2023/04/13 02:02:01;;;;;;;3.17;0.90;;;6.10;99.90;;;;;;4977851;28;20038;-72
2023/04/13 02:04:27;;;;;;;2.45;0.98;;;6.10;99.90;;;;;;4968184;28;20084;-72
2023/04/13 02:06:52;;;;;;;2.95;0.93;;;6.10;99.90;;;;;;4986519;28;20062;-71
2023/04/13 02:09:18;;;;;;;2.38;0.95;;;6.10;99.90;;;;;;4979963;28;20042;-72
2023/04/13 02:11:44;;;;;;;5.35;1.08;;;6.10;99.90;;;;;;4966196;28;20174;-72
2023/04/13 02:14:10;;;;;;;2.17;0.95;;;6.10;99.90;;;;;;4961474;28;20569;-71
2023/04/13 02:16:35;;;;;;;3.38;1.27;;;6.10;99.90;;;;;;4969191;28;20049;-71
2023/04/13 02:19:01;;;;;;;5.00;1.17;;;6.10;99.90;;;;;;4967650;28;20104;-72
2023/04/13 02:21:27;;;;;;;3.78;1.20;;;6.10;99.90;;;;;;4968659;28;20402;-71
2023/04/13 02:23:52;;;;;;;3.42;1.10;;;6.10;99.90;;;;;;4961018;28;20082;-72
2023/04/13 02:26:19;;;;;;;6.53;1.10;;;6.00;99.90;;;;;;4967438;28;20049;-71
2023/04/13 02:28:45;;;;;;;4.63;1.17;;;6.00;99.90;;;;;;4962000;28;20125;-71
2023/04/13 02:31:15;;;;;;;5.40;1.20;;;6.00;99.90;;;;;;4967195;28;20038;-71
2023/04/13 02:33:42;;;;;;;5.95;1.25;;;6.00;99.90;;;;;;4945327;28;20640;-71
2023/04/13 02:36:09;;;;;;;3.88;1.20;;;6.00;99.90;;;;;;4954839;28;20380;-71
2023/04/13 02:38:36;;;;;;;3.35;1.02;;;6.00;99.90;;;;;;4963565;28;20584;-70
2023/04/13 02:41:02;;;;;;;2.38;0.82;;;6.00;99.90;;;;;;4970069;28;20039;-71
2023/04/13 02:43:28;;;;;;;2.58;1.00;;;6.00;99.90;;;;;;4976663;28;20122;-71
2023/04/13 02:45:56;;;;;;;4.90;0.98;;;5.90;99.90;;;;;;4971462;28;20121;-70
2023/04/13 02:48:22;;;;;;;2.15;1.00;;;5.90;99.90;;;;;;4969487;28;20034;-71
2023/04/13 02:50:48;;;;;;;2.30;1.30;;;5.90;99.90;;;;;;4964762;28;20132;-72
2023/04/13 02:53:16;;;;;;;4.47;1.20;;;5.90;99.90;;;;;;4962049;28;20119;-72
2023/04/13 02:55:42;;;;;;;2.88;1.30;;;6.00;99.90;;;;;;4965798;28;20042;-72
2023/04/13 02:58:11;;;;;;;4.15;1.30;;;6.00;99.90;;;;;;4968820;28;20518;-72
2023/04/13 03:00:37;;;;;;;2.47;0.93;;;6.00;99.90;;;;;;4970795;28;20066;-72
2023/04/13 03:03:03;;;;;;;4.85;1.27;;;5.90;99.90;;;;;;4967069;28;20125;-72
2023/04/13 03:05:32;;;;;;;2.60;1.05;;;6.00;99.90;;;;;;4966723;28;20157;-72
2023/04/13 03:07:58;;;;;;;5.13;1.35;;;6.00;99.90;;;;;;4966920;28;20034;-72
2023/04/13 03:10:24;;;;;;;3.90;1.80;;;6.00;99.90;;;;;;4971069;28;20391;-72
2023/04/13 03:12:50;;;;;;;5.25;1.33;;;6.00;99.90;;;;;;4965818;28;20129;-72
2023/04/13 03:15:17;;;;;;;3.08;0.98;;;6.00;99.90;;;;;;4966800;28;20126;-72
2023/04/13 03:17:43;;;;;;;1.85;1.02;;;6.00;99.90;;;;;;4955062;28;20077;-72
2023/04/13 03:20:11;;;;;;;4.13;1.15;;;6.00;99.90;;;;;;4960233;28;20057;-72
2023/04/13 03:22:38;;;;;;;3.90;1.13;;;6.00;99.90;;;;;;4961119;28;20046;-72
2023/04/13 03:25:05;;;;;;;1.98;1.00;;;6.00;99.90;;;;;;4962250;28;20326;-72
2023/04/13 03:27:31;;;;;;;4.72;1.27;;;6.00;99.90;;;;;;4967844;28;20088;-72
2023/04/13 03:29:57;;;;;;;2.63;1.60;;;6.00;99.90;;;;;;4977697;28;20054;-72
2023/04/13 03:32:22;;;;;;;3.92;1.08;;;6.00;99.90;;;;;;4968926;28;20042;-72
2023/04/13 03:34:48;;;;;;;2.80;1.38;;;6.00;99.90;;;;;;4969017;28;20074;-72
2023/04/13 03:37:14;;;;;;;4.78;1.60;;;6.00;99.90;;;;;;4973252;28;20073;-73
2023/04/13 03:39:40;;;;;;;5.20;1.48;;;6.00;99.90;;;;;;4978488;28;20113;-73
2023/04/13 03:42:06;;;;;;;5.60;1.65;;;6.00;99.90;;;;;;4970146;28;20444;-73
2023/04/13 03:44:32;;;;;;;2.60;1.65;;;6.00;99.90;;;;;;4969581;28;20060;-72
2023/04/13 03:46:58;;;;;;;3.22;1.67;;;6.00;99.90;;;;;;4952387;28;20088;-72
2023/04/13 03:49:23;;;;;;;5.20;1.48;;;6.10;99.90;;;;;;4964926;28;20466;-72
2023/04/13 03:51:49;;;;;;;3.75;1.70;;;6.00;99.90;;;;;;4982565;28;20054;-73
2023/04/13 03:54:15;;;;;;;4.13;1.70;;;6.00;99.90;;;;;;4967947;28;20046;-73
2023/04/13 03:56:41;;;;;;;2.35;1.58;;;6.10;99.90;;;;;;4980272;28;20043;-73
2023/04/13 03:59:07;;;;;;;4.05;1.90;;;6.00;99.90;;;;;;4958585;28;20070;-73
2023/04/13 04:01:32;;;;;;;3.38;1.55;;;6.10;99.90;;;;;;4987474;28;20034;-72
2023/04/13 04:03:58;;;;;;;2.88;1.80;;;6.10;99.90;;;;;;4970337;28;20138;-73
2023/04/13 04:06:24;;;;;;;4.10;2.17;;;6.10;99.90;;;;;;4969611;28;20038;-72
2023/04/13 04:08:50;;;;;;;7.05;1.90;;;6.10;99.90;;;;;;4961965;28;20042;-73
2023/04/13 04:11:16;;;;;;;4.13;1.70;;;6.10;99.90;;;;;;4972431;28;20046;-72
2023/04/13 04:13:42;;;;;;;3.10;2.08;;;6.10;99.90;;;;;;4963746;28;20082;-72
2023/04/13 04:16:10;;;;;;;4.03;2.05;;;6.10;99.90;;;;;;4970151;28;20077;-73
2023/04/13 04:18:36;;;;;;;4.03;2.33;;;6.20;99.90;;;;;;4954293;28;20394;-73
2023/04/13 04:21:02;;;;;;;5.13;2.20;;;6.10;99.90;;;;;;4968929;28;20042;-72
2023/04/13 04:23:29;;;;;;;3.67;2.00;;;6.10;99.90;;;;;;4969006;28;20201;-73
2023/04/13 04:25:58;;;;;;;4.00;2.42;;;6.10;99.90;;;;;;4952829;28;20042;-73
2023/04/13 04:28:24;;;;;;;4.10;2.05;;;6.10;99.90;;;;;;4964794;28;20042;-72
2023/04/13 04:30:54;;;;;;;5.65;2.20;;;6.10;99.90;;;;;;4965108;28;20042;-73
2023/04/13 04:33:22;;;;;;;3.40;2.13;;;6.20;99.90;;;;;;4968252;28;20068;-73
2023/04/13 04:35:50;;;;;;;3.72;2.53;;;6.20;99.90;;;;;;4965605;28;20592;-72
2023/04/13 04:38:17;;;;;;;3.30;2.60;;;6.10;99.90;;;;;;4963214;28;20388;-72
2023/04/13 04:40:44;;;;;;;4.57;3.22;;;6.10;99.90;;;;;;4954382;28;20039;-72
2023/04/13 04:43:13;;;;;;;6.95;3.30;;;6.10;99.90;;;;;;4983056;28;20043;-73
2023/04/13 04:45:44;;;;;;;4.13;2.72;;;6.00;99.90;;;;;;4972583;28;20810;-72
2023/04/13 04:48:10;;;;;;;4.30;2.60;;;6.00;99.90;;;;;;4975222;28;20034;-72
2023/04/13 04:50:37;;;;;;;4.05;3.25;;;5.90;99.90;;;;;;4984973;28;20529;-73
2023/04/13 04:53:05;;;;;;;6.40;3.33;;;5.90;99.90;;;;;;4973398;28;20486;-73
2023/04/13 04:55:32;;;;;;;5.28;3.03;;;5.90;99.90;;;;;;4970575;28;20051;-73
2023/04/13 04:57:57;;;;;;;5.13;3.22;;;5.90;99.90;;;;;;4968760;28;20446;-72
2023/04/13 05:00:29;;;;;;;3.58;2.95;;;5.80;99.90;;;;;;4968326;28;20038;-72
2023/04/13 05:02:56;;;;;;;4.18;2.97;;;5.80;99.90;;;;;;4956334;28;20507;-72
2023/04/13 05:05:23;;;;;;;4.88;3.38;;;5.80;99.90;;;;;;4971984;28;20074;-72
2023/04/13 05:07:49;;;;;;;5.43;3.47;;;5.70;99.90;;;;;;4972508;28;20035;-72
2023/04/13 05:10:15;;;;;;;7.75;3.65;;;5.70;99.90;;;;;;4971313;28;20073;-72
2023/04/13 05:12:41;;;;;;;5.25;3.53;;;5.60;99.90;;;;;;4965169;28;20116;-72
2023/04/13 05:15:07;;;;;;;6.43;3.72;;;5.60;99.90;;;;;;4982901;28;20125;-72
2023/04/13 05:17:35;;;;;;;5.63;3.67;;;5.60;99.90;;;;;;4968029;28;20042;-72
2023/04/13 05:20:02;;;;;;;5.70;4.00;;;5.60;99.90;;;;;;4969981;28;20137;-72
2023/04/13 05:22:28;;;;;;;4.47;3.78;;;5.60;99.90;;;;;;4964479;28;20476;-72
2023/04/13 05:24:53;;;;;;;6.65;3.72;;;5.60;99.90;;;;;;4967786;28;20030;-73
2023/04/13 05:27:19;;;;;;;5.85;3.50;;;5.70;99.90;;;;;;4966304;28;20031;-72
2023/04/13 05:29:45;;;;;;;10.38;3.92;;;5.70;99.90;;;;;;4969502;28;20042;-72
2023/04/13 05:32:11;;;;;;;7.25;3.85;;;5.90;99.90;;;;;;4965630;28;20042;-72
2023/04/13 05:34:37;;;;;;;5.70;3.83;;;5.90;99.90;;;;;;4986131;28;20745;-72
2023/04/13 05:37:03;;;;;;;6.35;4.00;;;5.90;99.90;;;;;;4969237;28;20085;-71
2023/04/13 05:39:28;;;;;;;6.35;4.05;;;5.90;99.90;;;;;;4970354;28;20049;-71
2023/04/13 05:41:55;;;;;;;8.13;3.67;;;5.90;99.90;;;;;;4965796;28;20414;-70
2023/04/13 05:44:20;;;;;;;7.65;3.85;;;6.10;99.90;;;;;;4968337;28;20403;-71
2023/04/13 05:46:49;;;;;;;6.10;3.72;;;6.30;99.90;;;;;;4973725;28;20034;-70
2023/04/13 05:49:15;;;;;;;5.82;3.85;;;6.40;99.90;;;;;;4966413;28;20042;-71
2023/04/13 05:51:40;;;;;;;8.52;4.00;;;6.50;99.90;;;;;;4983387;28;20039;-71
2023/04/13 05:54:08;;;;;;;6.78;3.35;;;6.60;99.90;;;;;;4962748;28;20043;-71
2023/04/13 05:56:35;;;;;;;8.52;3.20;;;6.60;99.90;;;;;;4966011;28;20050;-71
2023/04/13 05:59:03;;;;;;;5.88;3.25;;;6.70;99.90;;;;;;4953115;28;20455;-72
2023/04/13 06:01:29;;;;;;;8.00;3.70;;;6.70;99.90;;;;;;4970170;28;20451;-72
2023/04/13 06:03:55;;;;;;;4.90;3.17;;;6.70;99.90;;;;;;4972543;28;20153;-72
2023/04/13 06:06:21;;;;;;;6.38;3.63;;;6.70;99.90;;;;;;4954355;28;20151;-72
2023/04/13 06:08:48;;;;;;;7.45;3.40;;;6.80;99.90;;;;;;4967894;28;20093;-72
2023/04/13 06:11:14;;;;;;;9.23;3.63;;;6.80;99.90;;;;;;4982563;28;20438;-72
2023/04/13 06:13:41;;;;;;;7.70;3.55;;;6.80;99.90;;;;;;4970375;28;20062;-72
2023/04/13 06:16:08;;;;;;;8.02;3.67;;;6.80;99.90;;;;;;4985448;28;20038;-72
2023/04/13 06:18:33;;;;;;;9.57;4.18;;;6.80;99.90;;;;;;4969216;28;20089;-72
2023/04/13 06:20:59;;;;;;;7.85;4.22;;;6.90;99.90;;;;;;4959566;28;20463;-71
2023/04/13 06:23:25;;;;;;;8.32;4.70;;;7.00;99.90;;;;;;4982237;28;20491;-72
2023/04/13 06:25:51;;;;;;;6.65;5.30;;;7.00;99.90;;;;;;4968953;28;20084;-72
2023/04/13 06:28:17;;;;;;;9.02;5.10;;;7.10;99.90;;;;;;4962322;28;20097;-72
2023/04/13 06:30:42;;;;;;;10.20;5.18;;;7.20;99.90;;;;;;4973561;28;20065;-71
2023/04/13 06:33:08;;;;;;;6.85;4.82;;;7.30;99.90;;;;;;4962873;28;20035;-72
2023/04/13 06:35:35;;;;;;;10.48;4.50;;;7.50;99.90;;;;;;4968740;28;20042;-72
2023/04/13 06:38:01;;;;;;;6.97;4.20;;;7.60;99.90;;;;;;4963560;28;20046;-72
2023/04/13 06:40:27;;;;;;;11.88;4.43;;;7.70;99.90;;;;;;4962467;28;20446;-72
2023/04/13 06:42:53;;;;;;;5.65;3.88;;;7.70;99.90;;;;;;4969522;28;20449;-72
2023/04/13 06:45:20;;;;;;;6.45;3.80;;;7.90;99.90;;;;;;4966007;28;20046;-72
2023/04/13 06:47:46;;;;;;;4.82;3.45;;;8.10;99.90;;;;;;4962798;28;20042;-72
2023/04/13 06:50:14;;;;;;;8.95;3.35;;;8.20;99.90;;;;;;4963489;28;20046;-72
2023/04/13 06:52:47;;;;;;;9.40;3.85;;;8.30;99.90;;;;;;4962604;28;20061;-72
2023/04/13 06:55:13;;;;;;;4.88;2.63;;;8.30;99.90;;;;;;4968109;28;20061;-72
2023/04/13 06:57:39;;;;;;;10.32;3.42;;;8.10;99.90;;;;;;4962024;28;20050;-72
2023/04/13 07:00:07;;;;;;;7.07;2.88;;;8.10;99.90;;;;;;4967811;28;20041;-72
2023/04/13 07:02:32;;;;;;;7.78;3.08;;;8.00;99.90;;;;;;4949472;28;20042;-72
2023/04/13 07:04:58;;;;;;;6.97;2.78;;;7.90;99.90;;;;;;4983780;28;20061;-72
2023/04/13 07:07:24;;;;;;;6.90;2.95;;;7.90;99.90;;;;;;4965369;28;20073;-72
2023/04/13 07:09:51;;;;;;;9.30;3.08;;;7.90;99.90;;;;;;4967681;28;20501;-72
2023/04/13 07:12:17;;;;;;;8.18;2.90;;;7.90;99.90;;;;;;4968727;28;20070;-72
2023/04/13 07:14:45;;;;;;;7.78;2.90;;;7.90;99.90;;;;;;4957437;28;20057;-72
2023/04/13 07:17:11;;;;;;;8.43;3.00;;;7.90;99.90;;;;;;4980745;28;20042;-73
2023/04/13 07:19:37;;;;;;;8.27;3.05;;;7.90;99.90;;;;;;4969259;28;20431;-70
2023/04/13 07:22:03;;;;;;;6.82;2.60;;;7.90;99.90;;;;;;4983874;28;20477;-70
2023/04/13 07:24:29;;;;;;;12.25;3.00;;;7.90;99.90;;;;;;4969145;28;20054;-70
2023/04/13 07:26:56;;;;;;;7.00;2.58;;;7.90;99.90;;;;;;4981373;28;20611;-71
2023/04/13 07:29:22;;;;;;;6.90;2.38;;;8.00;99.90;;;;;;4964918;28;20053;-71
2023/04/13 07:31:49;;;;;;;5.75;2.90;;;8.10;99.90;;;;;;4968782;28;20081;-71
2023/04/13 07:34:15;;;;;;;7.07;2.67;;;8.30;99.90;;;;;;4965116;28;20418;-71
2023/04/13 07:36:41;;;;;;;8.13;2.58;;;8.50;99.90;;;;;;4966897;28;20049;-71
2023/04/13 07:39:08;;;;;;;7.75;2.60;;;8.50;99.90;;;;;;4963315;28;20034;-71
2023/04/13 07:41:34;;;;;;;7.10;2.80;;;8.50;99.90;;;;;;4969211;28;20050;-71
2023/04/13 07:44:01;;;;;;;7.20;2.65;;;8.50;99.90;;;;;;4969083;28;20042;-71
2023/04/13 07:46:26;;;;;;;5.55;2.47;;;8.40;99.90;;;;;;4966018;28;20042;-71
2023/04/13 07:48:53;;;;;;;6.47;2.88;;;8.30;99.90;;;;;;4983044;28;20034;-71
2023/04/13 07:51:19;;;;;;;6.15;2.22;;;8.30;99.90;;;;;;4968125;28;20185;-71
2023/04/13 07:53:45;;;;;;;6.05;2.10;;;8.20;99.90;;;;;;4965276;28;20026;-71
2023/04/13 07:56:11;;;;;;;8.60;2.10;;;8.10;99.90;;;;;;4969380;28;20034;-71
2023/04/13 07:58:37;;;;;;;7.55;2.35;;;8.00;99.90;;;;;;4982487;28;20031;-71
2023/04/13 08:01:03;;;;;;;7.07;1.95;;;8.00;99.90;;;;;;4971616;28;20498;-72
2023/04/13 08:03:35;;;;;;;5.18;1.67;;;8.00;99.90;;;;;;4968769;28;20104;-71
2023/04/13 08:06:10;;;;;;;5.05;1.70;;;8.10;99.90;;;;;;4967497;28;20038;-72
2023/04/13 08:08:36;;;;;;;6.10;1.70;;;8.00;99.90;;;;;;4964687;28;20729;-72
2023/04/13 08:11:02;;;;;;;4.20;1.17;;;8.00;99.90;;;;;;4984596;28;20057;-71
2023/04/13 08:13:29;;;;;;;5.93;1.65;;;8.00;99.90;;;;;;4971841;28;20055;-72
2023/04/13 08:15:59;;;;;;;4.63;1.23;;;8.00;99.90;;;;;;4984750;28;20507;-72
2023/04/13 08:18:28;;;;;;;6.38;1.88;;;8.00;99.90;;;;;;4970182;28;20046;-71
2023/04/13 08:20:54;;;;;;;4.75;1.13;;;8.10;99.90;;;;;;4973122;28;20041;-71
2023/04/13 08:23:21;;;;;;;6.13;1.75;;;8.20;99.90;;;;;;4959326;28;20117;-72
2023/04/13 08:25:47;;;;;;;3.13;0.82;;;8.40;99.90;;;;;;4985135;28;20038;-71
2023/04/13 08:28:13;;;;;;;3.45;1.02;;;8.50;99.90;;;;;;4967341;28;20054;-72
2023/04/13 08:30:39;;;;;;;4.75;1.05;;;8.60;99.90;;;;;;4968465;28;20435;-71
2023/04/13 08:33:05;;;;;;;2.40;0.80;;;8.70;99.90;;;;;;4964464;28;20442;-72
2023/04/13 08:35:31;;;;;;;7.03;1.40;;;8.60;99.90;;;;;;4981639;28;20137;-69
2023/04/13 08:37:57;;;;;;;4.07;0.90;;;8.60;99.90;;;;;;4970257;28;20048;-69
2023/04/13 08:40:23;;;;;;;6.22;1.20;;;8.40;99.90;;;;;;4965632;28;20047;-70
2023/04/13 08:42:48;;;;;;;3.78;1.25;;;8.20;99.90;;;;;;4961609;28;20065;-71
2023/04/13 08:45:15;;;;;;;3.35;0.73;;;8.00;99.90;;;;;;4982317;28;20039;-71
2023/04/13 08:47:41;;;;;;;1.10;0.50;;;7.90;99.90;;;;;;4983677;28;20078;-72
2023/04/13 08:50:08;;;;;;;3.25;0.70;;;7.80;99.90;;;;;;4968856;28;20038;-73
2023/04/13 08:52:35;;;;;;;3.25;0.60;;;7.70;99.90;;;;;;4962435;28;20049;-72
2023/04/13 08:55:03;;;;;;;4.20;1.17;;;7.60;99.90;;;;;;4970928;28;20056;-72
2023/04/13 08:57:29;;;;;;;6.43;1.10;;;7.50;99.90;;;;;;4967563;28;20101;-71
2023/04/13 08:59:57;;;;;;;5.82;1.10;;;7.40;99.90;;;;;;4970013;28;20038;-71
2023/04/13 09:02:27;;;;;;;6.15;0.95;;;7.30;99.90;;;;;;4965300;28;20050;-72
2023/04/13 09:04:59;;;;;;;1.60;0.40;;;7.20;99.90;;;;;;4972006;28;20112;-72
2023/04/13 09:07:28;;;;;;;2.53;0.30;;;7.10;99.90;;;;;;4972465;28;20080;-73
2023/04/13 09:09:58;;;;;;;245.70;17.02;;;7.00;99.90;;;;;;4968047;28;20405;-74
2023/04/13 09:12:28;;;;;;;21.02;1.83;;;7.50;99.90;;;;;;4966140;28;20089;-73
2023/04/13 09:14:54;;;;;;;26.63;2.10;;;8.80;99.90;;;;;;4964044;28;20490;-73
2023/04/13 09:17:31;;;;;;;2.15;0.40;;;9.90;99.90;;;;;;4968117;28;20108;-73
2023/04/13 09:20:10;;;;;;;4.40;0.60;;;10.50;99.90;;;;;;4955751;28;20066;-74
2023/04/13 09:22:36;;;;;;;2.35;0.50;;;10.20;99.90;;;;;;4965117;28;20132;-73
2023/04/13 09:25:04;;;;;;;2.88;0.70;;;9.70;99.90;;;;;;4970915;28;20437;-72
2023/04/13 09:27:29;;;;;;;3.83;0.90;;;9.40;99.90;;;;;;4956408;28;20041;-73
2023/04/13 09:29:56;;;;;;;4.10;0.80;;;9.20;99.90;;;;;;4969650;28;20042;-74
2023/04/13 09:32:26;;;;;;;4.32;0.88;;;9.70;99.90;;;;;;4962871;28;20501;-73
2023/04/13 09:35:02;;;;;;;1.33;0.45;;;10.30;99.90;;;;;;4972323;28;20054;-72
2023/04/13 09:37:35;;;;;;;3.63;0.98;;;10.40;99.90;;;;;;4969883;28;20046;-73
2023/04/13 09:40:19;;;;;;;;;;;10.30;99.90;;;;;;4964937;28;20486;-72
2023/04/13 09:43:01;;;;;;;6.15;0.80;;;10.60;99.90;;;;;;4970737;28;19937;-72
2023/04/13 09:45:46;;;;;;;3.90;0.50;;;11.00;99.90;;;;;;4986883;28;20618;-72
2023/04/13 09:48:23;;;;;;;2.85;0.60;;;11.20;99.90;;;;;;4961716;28;20480;-71
2023/04/13 09:50:58;;;;;;;5.53;0.82;;;11.10;99.90;;;;;;4967893;28;20050;-71
2023/04/13 09:53:24;;;;;;;4.35;0.57;;;11.60;99.90;;;;;;4964476;28;20138;-71
2023/04/13 09:56:03;;;;;;;3.55;0.60;;;12.20;99.90;;;;;;4969432;28;20035;-71
2023/04/13 09:58:46;;;;;;;4.93;0.60;;;12.70;99.90;;;;;;4971058;28;20058;-71
2023/04/13 10:01:24;;;;;;;4.35;0.80;;;12.50;99.90;;;;;;4979399;28;21175;-71
2023/04/13 10:04:03;;;;;;;4.55;0.63;;;12.00;99.90;;;;;;4968473;28;20538;-71
2023/04/13 10:06:39;;;;;;;4.32;0.80;;;11.60;99.90;;;;;;4971460;28;20129;-71
2023/04/13 10:09:05;;;;;;;4.80;1.00;;;11.20;99.90;;;;;;4964880;28;20421;-72
2023/04/13 10:11:48;;;;;;;6.80;1.08;;;10.90;99.90;;;;;;4982862;28;20042;-72
2023/04/13 10:14:24;;;;;;;8.60;1.65;;;10.90;99.90;;;;;;4973301;28;20137;-73
2023/04/13 10:17:09;;;;;;;7.30;1.48;;;11.10;99.90;;;;;;4958061;28;20042;-72
2023/04/13 10:19:42;;;;;;;7.75;1.48;;;11.10;99.90;;;;;;4961563;28;20097;-73
2023/04/13 10:22:10;;;;;;;5.82;1.25;;;11.00;99.90;;;;;;4982761;28;20522;-73
2023/04/13 10:24:37;;;;;;;7.07;1.23;;;10.90;99.90;;;;;;4965082;28;20039;-72
2023/04/13 10:27:12;;;;;;;6.28;1.25;;;11.00;99.90;;;;;;4965125;28;20553;-71
2023/04/13 10:29:38;;;;;;;5.22;0.82;;;11.60;99.90;;;;;;4976196;28;20046;-72
2023/04/13 10:32:05;;;;;;;6.38;1.30;;;12.40;99.90;;;;;;4969029;28;20045;-72
2023/04/13 10:34:37;;;;;;;9.27;1.45;;;13.10;99.90;;;;;;4964742;28;20051;-73
2023/04/13 10:37:05;;;;;;;7.22;1.58;;;13.60;99.90;;;;;;4961344;28;20434;-71
2023/04/13 10:39:32;;;;;;;10.35;1.48;;;13.80;99.90;;;;;;4962024;28;20070;-70
2023/04/13 10:42:02;;;;;;;9.43;2.20;;;13.70;99.90;;;;;;4987257;28;20556;-72
2023/04/13 10:44:42;;;;;;;8.32;1.30;;;13.20;99.90;;;;;;4971540;28;20038;-72
2023/04/13 10:47:08;;;;;;;8.52;2.00;;;12.80;99.90;;;;;;4970850;28;20533;-72
2023/04/13 10:49:35;;;;;;;9.23;1.52;;;12.40;99.90;;;;;;4967911;28;20046;-72
2023/04/13 10:52:01;;;;;;;9.57;2.17;;;12.10;99.90;;;;;;4974973;28;20104;-71
2023/04/13 10:54:28;;;;;;;8.57;1.60;;;12.00;99.90;;;;;;4965549;28;20043;-72
2023/04/13 10:56:56;;;;;;;7.95;1.50;;;11.80;99.90;;;;;;4971299;28;20034;-72
2023/04/13 10:59:22;;;;;;;10.55;2.13;;;11.50;99.90;;;;;;4967314;28;20046;-73
2023/04/13 11:01:48;;;;;;;8.13;1.67;;;11.30;99.90;;;;;;4989332;28;20031;-72
2023/04/13 11:04:14;;;;;;;10.75;1.48;;;11.20;99.90;;;;;;4967404;28;20184;-73
2023/04/13 11:06:40;;;;;;;6.78;1.45;;;11.50;99.90;;;;;;4991430;28;20042;-73
2023/04/13 11:09:10;;;;;;;12.13;1.75;;;11.70;99.90;;;;;;4970782;28;20089;-72
2023/04/13 11:11:36;;;;;;;9.63;1.50;;;11.80;99.90;;;;;;4971422;28;20470;-72
2023/04/13 11:14:02;;;;;;;6.32;1.35;;;11.90;99.90;;;;;;4970474;28;20141;-74
2023/04/13 11:16:28;;;;;;;6.93;1.33;;;11.90;99.90;;;;;;4974018;28;20423;-74
2023/04/13 11:19:04;;;;;;;8.73;2.25;;;11.80;99.90;;;;;;4972732;28;20041;-74
2023/04/13 11:21:34;;;;;;;5.50;1.20;;;11.60;99.90;;;;;;4966915;28;20042;-74
2023/04/13 11:24:01;;;;;;;7.32;1.20;;;11.50;99.90;;;;;;4971483;28;20039;-74
2023/04/13 11:26:35;;;;;;;9.75;1.65;;;11.30;99.90;;;;;;4967262;28;20049;-73
2023/04/13 11:29:02;;;;;;;6.57;1.63;;;11.10;99.90;;;;;;4968177;28;20172;-73
2023/04/13 11:31:39;;;;;;;12.13;1.33;;;10.90;99.90;;;;;;4969197;28;20046;-73
2023/04/13 11:34:09;;;;;;;7.10;1.33;;;10.80;99.90;;;;;;4969393;28;20049;-73
2023/04/13 11:36:37;;;;;;;9.85;1.65;;;10.80;99.90;;;;;;4963321;28;20615;-73
2023/04/13 11:39:06;;;;;;;8.00;1.45;;;10.70;99.90;;;;;;4970787;28;20039;-73
2023/04/13 11:41:38;;;;;;;10.25;1.92;;;10.60;99.90;;;;;;4972390;28;20042;-73
2023/04/13 11:44:03;;;;;;;8.75;1.73;;;10.60;99.90;;;;;;4969529;28;20038;-73
2023/04/13 11:46:29;;;;;;;7.57;1.60;;;10.60;99.90;;;;;;4984405;28;20149;-73
2023/04/13 11:48:57;;;;;;;9.63;1.52;;;10.60;99.90;;;;;;4987393;28;20085;-73
2023/04/13 11:51:24;;;;;;;8.75;1.58;;;10.50;99.90;;;;;;4968017;28;20051;-73
2023/04/13 11:53:50;;;;;;;10.73;1.75;;;10.50;99.90;;;;;;4966956;28;20027;-73
2023/04/13 11:56:17;;;;;;;9.95;1.58;;;10.60;99.90;;;;;;4965846;28;20394;-73
2023/04/13 11:58:42;;;;;;;11.32;1.65;;;10.70;99.90;;;;;;4969795;28;20558;-73
2023/04/13 12:01:08;;;;;;;9.00;1.33;;;10.80;99.90;;;;;;4979517;28;20389;-73
2023/04/13 12:03:35;;;;;;;12.35;1.70;;;11.00;99.90;;;;;;4970940;28;20127;-73
2023/04/13 12:06:02;;;;;;;11.32;1.60;;;11.30;99.90;;;;;;4968623;28;20038;-72
2023/04/13 12:08:28;;;;;;;10.63;1.92;;;11.60;99.90;;;;;;4983792;28;20042;-73
2023/04/13 12:11:04;;;;;;;10.07;1.63;;;11.80;99.90;;;;;;4969544;28;20097;-72
2023/04/13 12:13:40;;;;;;;8.25;1.40;;;11.90;99.90;;;;;;4958481;28;20121;-72
2023/04/13 12:16:06;;;;;;;7.55;1.42;;;11.90;99.90;;;;;;4972112;28;20468;-73
2023/04/13 12:18:42;;;;;;;4.80;1.25;;;12.00;99.90;;;;;;4968430;28;20081;-72
2023/04/13 12:21:13;;;;;;;7.10;0.95;;;12.00;99.90;;;;;;4973474;28;20039;-72
2023/04/13 12:23:38;;;;;;;7.45;1.25;;;12.00;99.90;;;;;;4961609;28;20114;-72
2023/04/13 12:26:04;;;;;;;9.93;1.38;;;11.80;99.90;;;;;;4970982;28;20145;-73
2023/04/13 12:28:36;;;;;;;8.60;1.40;;;11.60;99.90;;;;;;4985908;28;20297;-73
2023/04/13 12:31:08;;;;;;;8.32;1.50;;;11.40;99.90;;;;;;4968056;28;20062;-73
2023/04/13 12:33:38;;;;;;;10.05;1.55;;;11.20;99.90;;;;;;4969266;28;20047;-73
2023/04/13 12:36:05;;;;;;;9.93;1.48;;;11.10;99.90;;;;;;4971759;28;20053;-73
2023/04/13 12:38:32;;;;;;;12.13;1.70;;;11.20;99.90;;;;;;4969977;28;20521;-73
2023/04/13 12:41:00;;;;;;;7.57;1.23;;;11.30;99.90;;;;;;4965533;28;20054;-73
2023/04/13 12:43:26;;;;;;;9.05;1.33;;;11.50;99.90;;;;;;4984664;28;20046;-73
2023/04/13 12:45:53;;;;;;;9.18;1.73;;;11.60;99.90;;;;;;4972867;28;20395;-73
2023/04/13 12:48:20;;;;;;;7.95;1.52;;;11.70;99.90;;;;;;4965188;28;20034;-73
2023/04/13 12:50:47;;;;;;;9.27;1.20;;;12.00;99.90;;;;;;4968139;28;20125;-73
2023/04/13 12:53:12;;;;;;;9.90;1.85;;;12.30;99.90;;;;;;4969997;28;20567;-73
2023/04/13 12:55:39;;;;;;;8.52;1.25;;;12.50;99.90;;;;;;4975895;28;20108;-73
2023/04/13 12:58:05;;;;;;;6.35;1.10;;;12.50;99.90;;;;;;4972470;28;20073;-73